Flight Track Log - Related Links

Times and Time Zones

All times are in EST time to prevent confusion due to time zone crossing. See the AAL9406 flight status page for this flight to view local times or setup timezone preferences in your user account.

Time Position Orientation Groundspeed Altitude Reporting Facility
EST Latitude Longitude Course Direction KTS MPH feet Rate Location/Type
Thu 11:19:31 AM 29.6908 -82.2853 294° West 148 170 800  Level Jacksonville Center
Thu 11:21:04 AM 29.7269 -82.3783 294° West 251 289 4,200 2,241 Climbing Jacksonville Center
Thu 11:22:17 AM 29.7647 -82.4667 296° West 255 293 7,000 2,543 Climbing Jacksonville Center
Thu 11:22:36 AM 29.7753 -82.4858 302° West 276 318 8,100 2,278 Climbing Jacksonville Center
Thu 11:23:36 AM 29.8089 -82.5622 297° West 276 318 10,000 2,100 Climbing Jacksonville Center
Thu 11:24:36 AM 29.8486 -82.6556 296° West 298 343 12,300 2,800 Climbing Jacksonville Center
Thu 11:25:36 AM 29.8864 -82.7536 294° West 323 372 15,600 3,350 Climbing Jacksonville Center
Thu 11:26:36 AM 29.9283 -82.8519 296° West 338 389 19,000 3,000 Climbing Jacksonville Center
Thu 11:27:36 AM 29.9722 -82.9525 297° West 338 389 21,600 2,000 Climbing Jacksonville Center
Thu 11:28:36 AM 30.0158 -83.0581 296° West 344 396 23,000 650 Climbing Jacksonville Center
Thu 11:29:36 AM 30.0575 -83.1542 297° West 356 410 22,900 750 Descending Jacksonville Center
Thu 11:30:36 AM 30.0989 -83.2600 294° West 364 419 24,500 1,800 Climbing Jacksonville Center
Thu 11:31:36 AM 30.1444 -83.3706 296° West 369 425 26,500 1,850 Climbing Jacksonville Center
Thu 11:32:36 AM 30.1919 -83.4814 296° West 380 437 28,200 1,750 Climbing Jacksonville Center
Thu 11:33:36 AM 30.2417 -83.5994 283° West 387 445 30,000 1,850 Climbing Jacksonville Center
Thu 11:34:36 AM 30.2783 -83.7200 283° West 398 458 31,900 950 Climbing Jacksonville Center
Thu 11:35:36 AM 30.3047 -83.8478 282° West 398 458 31,900 50 Level Jacksonville Center
Thu 11:36:36 AM 30.3267 -83.9708 283° West 398 458 32,000 47 Climbing Jacksonville Center
Thu 11:37:44 AM 30.3540 -84.1050 296° West 398 458 32,000  Level FlightAware ADS-B
Thu 11:38:29 AM 30.3750 -84.2110 283° West 397 457 32,000  Level FlightAware ADS-B
Thu 11:40:04 AM 30.4120 -84.4020 283° West 397 457 32,000  Level FlightAware ADS-B
Thu 11:40:49 AM 30.4150 -84.4190 282° West 397 457 32,000 947 Level FlightAware ADS-B
Thu 11:41:39 AM 30.4510 -84.6060 283° West 395 455 33,500 1,771 Climbing FlightAware ADS-B
Thu 11:42:34 AM 30.4710 -84.7140 282° West 388 447 35,100 914 Climbing FlightAware ADS-B
Thu 11:43:24 AM 30.4890 -84.8090 282° West 388 447 35,100 568 Level FlightAware ADS-B
Thu 11:44:09 AM 30.4820 -84.7740 103° East 384 442 36,000 635 Climbing FlightAware ADS-B
Thu 11:44:49 AM 30.4950 -84.8420 283° West 384 442 36,000  Level FlightAware ADS-B
Thu 11:45:29 AM 30.5070 -84.9110 281° West 384 442 36,000  Level FlightAware ADS-B
Thu 11:46:14 AM 30.5200 -84.9790 283° West 384 442 36,000  Level FlightAware ADS-B
Thu 11:46:54 AM 30.5320 -85.0480 281° West 384 442 36,000  Level FlightAware ADS-B
Thu 11:47:34 AM 30.5450 -85.1160 283° West 384 442 36,000  Level FlightAware ADS-B
Thu 11:48:19 AM 30.5610 -85.2020 282° West 384 442 36,000  Level FlightAware ADS-B
Thu 11:48:36 AM 30.5292 -85.4464 282° West 385 443 36,000  Level Jacksonville Center
Thu 11:49:36 AM 30.5264 -85.5694 269° West 385 443 36,000  Level Jacksonville Center
Thu 11:50:36 AM 30.5239 -85.6922 269° West 385 443 36,000  Level Jacksonville Center
Thu 11:51:36 AM 30.5211 -85.8153 269° West 385 443 36,000  Level Jacksonville Center
Thu 11:52:36 AM 30.5161 -85.9403 269° West 385 443 36,000  Level Jacksonville Center
Thu 11:53:36 AM 30.5153 -86.0608 269° West 385 443 36,000  Level Jacksonville Center
Thu 11:54:36 AM 30.5100 -86.1861 269° West 385 443 36,000  Level Jacksonville Center
Thu 11:55:36 AM 30.5089 -86.3114 269° West 385 443 36,000  Level Jacksonville Center
Thu 11:57:21 AM 30.5030 -86.5430 269° West 387 445 36,000  Level FlightAware ADS-B
Thu 11:57:36 AM 30.5019 -86.5594 269° West 385 443 36,000  Level Jacksonville Center
Thu 11:58:36 AM 30.4983 -86.6822 268° West 385 443 36,000  Level Jacksonville Center
Thu 11:59:36 AM 30.4944 -86.8050 268° West 385 443 36,000  Level Jacksonville Center
Thu 12:00:36 PM 30.4906 -86.9303 268° West 385 443 36,000  Level Jacksonville Center
Thu 12:01:36 PM 30.4889 -87.0531 269° West 385 443 36,000  Level Jacksonville Center
Thu 12:02:36 PM 30.4847 -87.1781 268° West 385 443 36,000 -200 Level Jacksonville Center
Thu 12:03:36 PM 30.4783 -87.3031 267° West 385 443 35,600 -802 Descending Jacksonville Center
Thu 12:05:58 PM 30.4653 -87.6114 267° West 396 456 33,300 -980 Descending Houston Center
Thu 12:06:58 PM 30.4608 -87.7417 268° West 401 461 32,300 -650 Descending Houston Center
Thu 12:07:58 PM 30.4581 -87.8692 269° West 406 467 32,000 -150 Descending Houston Center
Thu 12:08:58 PM 30.4511 -87.9972 266° West 406 467 32,000  Level Houston Center
Thu 12:09:58 PM 30.4442 -88.1275 266° West 406 467 32,000  Level Houston Center
Thu 12:10:58 PM 30.4392 -88.2578 267° West 406 467 32,000  Level Houston Center
Thu 12:11:58 PM 30.4361 -88.3856 268° West 406 467 32,000  Level Houston Center
Thu 12:12:58 PM 30.4308 -88.5133 267° West 406 467 32,000 -150 Level Houston Center
Thu 12:13:58 PM 30.4233 -88.6458 266° West 406 467 31,700 -650 Descending Houston Center
Thu 12:14:58 PM 30.4178 -88.7736 267° West 406 467 30,700 -1,600 Descending Houston Center
Thu 12:15:58 PM 30.4100 -88.9014 266° West 406 467 28,500 -2,250 Descending Houston Center
Thu 12:16:58 PM 30.4103 -89.0194 270° West 399 459 26,200 -2,300 Descending Houston Center
Thu 12:17:58 PM 30.3853 -89.1333 256° West 381 438 23,900 -2,250 Descending Houston Center
Thu 12:18:58 PM 30.3456 -89.2378 246° West 366 421 21,700 -2,200 Descending Houston Center
Thu 12:19:58 PM 30.3097 -89.3397 248° West 359 413 19,500 -2,050 Descending Houston Center
Thu 12:20:58 PM 30.2717 -89.4367 246° West 347 399 17,600 -2,000 Descending Houston Center
Thu 12:21:58 PM 30.2358 -89.5361 247° West 325 374 15,500 -1,800 Descending Houston Center
Thu 12:22:58 PM 30.2056 -89.6158 246° West 330 380 14,000 -2,100 Descending Houston Center
Thu 12:23:58 PM 30.1736 -89.7031 247° West 318 366 11,300 -1,950 Descending Houston Center
Thu 12:24:58 PM 30.1392 -89.7878 245° Southwest 306 352 10,100 -1,350 Descending Houston Center
Thu 12:25:58 PM 30.1111 -89.8628 247° West 282 325 8,600 -1,872 Descending Houston Center
Thu 12:27:03 PM 30.0936 -89.9592 258° West 268 308 6,200 -1,810 Descending Houston Center
Thu 12:28:04 PM 30.1525 -90.0133 322° Northwest 274 315 4,800 -1,096 Descending Houston Center
Thu 12:28:58 PM 30.1867 -90.0656 307° West 235 270 4,100 -835 Descending Houston Center
Thu 12:29:59 PM 30.1894 -90.1353 273° West 229 264 3,200 -650 Descending Houston Center
Thu 12:30:58 PM 30.1692 -90.1933 248° West 202 232 2,800 -504 Descending Houston Center
Thu 12:31:58 PM 30.1214 -90.2083 195° South 165 190 2,200 -600 Descending Houston Center
Thu 12:32:58 PM 30.0797 -90.2208 195° South 159 183 1,600 -650 Descending Houston Center
Thu 12:33:58 PM 30.0467 -90.2333 198° South 146 168 900 -600 Descending Houston Center
Thu 12:34:58 PM 30.0050 -90.2483 197° South 146 168 400 -500 Descending Houston Center
Thu 12:36:00 PM 29.9934 -90.2580 205° Southwest  Level Estimated
Thu 12:43:00 PM 29.9934 -90.2580 205° Southwest  Level Estimated
Thu 12:44:00 PM 29.9934 -90.2580 205° Southwest  Level Estimated
Thu 12:45:00 PM 29.9934 -90.2580 205° Southwest  Level Estimated
Thu 12:46:00 PM 29.9934 -90.2580 205° Southwest  Level Estimated

Login

Don't have an account? Register now (free) for customized features, flight alerts, and more!